Time;durP1;ratioP1;P1;durP2;ratioP2;P2;SDS_P1;SDS_P2;PMS_P1;PMS_P2;Temp;Humidity;BMP_temperature;BMP_pressure;BME280_temperature;BME280_humidity;BME280_pressure;Samples;Min_cycle;Max_cycle;Signal;HPM_P1;HPM_P2
2022/05/01 00:00:29;;;;;;;;;;;;;;;7.50;100.00;96251.06;1029824;28;19929;-72
2022/05/01 00:00:59;;;;;;;;;;;;;;;7.50;100.00;96250.28;1030463;28;19928;-71
2022/05/01 00:01:30;;;;;;;;;;;;;;;7.48;100.00;96247.91;1022860;29;19986;-73
2022/05/01 00:02:00;;;;;;;;;;;;;;;7.47;100.00;96248.91;1026912;28;19992;-72
2022/05/01 00:02:30;;;;;;;;;;;;;;;7.46;100.00;96246.56;1030777;28;20895;-71
2022/05/01 00:03:03;;;;;;;;;;;;;;;7.45;100.00;96240.53;1030688;28;19922;-71
2022/05/01 00:03:35;;;;;;;;;;;;;;;7.43;100.00;96247.78;1034445;28;19921;-72
2022/05/01 00:04:06;;;;;;;;;;;;;;;7.43;100.00;96247.00;1028399;28;19922;-72
2022/05/01 00:04:36;;;;;;;;;;;;;;;7.46;100.00;96246.56;1030455;28;19921;-72
2022/05/01 00:05:07;;;;;;;;;;;;;;;7.46;100.00;96252.56;1026646;28;19918;-73
2022/05/01 00:05:37;;;;;;;;;;;;;;;7.43;100.00;96249.63;1022013;28;19925;-71
2022/05/01 00:06:08;;;;;;;;;;;;;;;7.46;100.00;96249.16;1022707;29;20423;-72
2022/05/01 00:06:39;;;;;;;;;;;;;;;7.44;100.00;96245.97;1022029;29;19922;-72
2022/05/01 00:07:12;;;;;;;;;;;;;;;7.43;100.00;96254.84;1018753;29;19978;-71
2022/05/01 00:07:43;;;;;;;;;;;;;;;7.42;100.00;96243.59;1023118;28;19930;-72
2022/05/01 00:08:14;;;;;;;;;;;;;;;7.42;100.00;96246.22;1026792;28;19972;-71
2022/05/01 00:08:45;;;;;;;;;;;;;;;7.43;100.00;96253.03;1019572;29;19948;-72
2022/05/01 00:09:15;;;;;;;;;;;;;;;7.40;100.00;96250.88;1014547;29;20057;-71
2022/05/01 00:09:45;;;;;;;;;;;;;;;7.43;100.00;96252.22;1011001;29;19919;-72
2022/05/01 00:10:16;;;;;;;;;;;;;;;7.40;100.00;96245.66;1011198;29;19959;-72
2022/05/01 00:10:46;;;;;;;;;;;;;;;7.43;100.00;96247.00;1018685;28;19914;-71
2022/05/01 00:11:17;;;;;;;;;;;;;;;7.42;100.00;96253.25;1018607;29;19926;-71
2022/05/01 00:11:48;;;;;;;;;;;;;;;7.41;100.00;96243.81;1022759;29;20047;-71
2022/05/01 00:12:18;;;;;;;;;;;;;;;7.43;100.00;96247.00;1022709;28;19989;-72
2022/05/01 00:12:48;;;;;;;;;;;;;;;7.45;100.00;96250.97;1027430;28;20001;-72
2022/05/01 00:13:19;;;;;;;;;;;;;;;7.44;100.00;96248.59;1027030;28;19928;-72
2022/05/01 00:13:50;;;;;;;;;;;;;;;7.46;100.00;96247.34;1027373;28;19929;-72
2022/05/01 00:14:20;;;;;;;;;;;;;;;7.46;100.00;96251.78;1027315;28;19926;-71
2022/05/01 00:14:51;;;;;;;;;;;;;;;7.44;100.00;96248.59;1027614;28;19976;-72
2022/05/01 00:15:22;;;;;;;;;;;;;;;7.45;100.00;96250.19;1031662;28;19922;-74
2022/05/01 00:15:52;;;;;;;;;;;;;;;7.44;100.00;96251.19;1023991;28;20272;-72
2022/05/01 00:16:24;;;;;;;;;;;;;;;7.42;100.00;96242.81;1026270;28;19946;-72
2022/05/01 00:16:54;;;;;;;;;;;;;;;7.45;100.00;96252.81;1026562;28;19972;-72
2022/05/01 00:17:24;;;;;;;;;;;;;;;7.44;100.00;96251.19;1027088;28;19977;-71
2022/05/01 00:17:55;;;;;;;;;;;;;;;7.44;100.00;96251.19;1030100;28;20303;-72
2022/05/01 00:18:25;;;;;;;;;;;;;;;7.44;100.00;96253.81;1026855;28;19914;-71
2022/05/01 00:18:55;;;;;;;;;;;;;;;7.44;100.00;96248.59;1022405;28;19918;-71
2022/05/01 00:19:25;;;;;;;;;;;;;;;7.45;100.00;96252.81;1023533;28;20340;-72
2022/05/01 00:19:56;;;;;;;;;;;;;;;7.45;100.00;96252.81;1028497;28;19918;-71
2022/05/01 00:20:26;;;;;;;;;;;;;;;7.44;100.00;96249.38;1026660;28;19925;-73
2022/05/01 00:20:56;;;;;;;;;;;;;;;7.45;100.00;96260.63;1026519;28;19921;-71
2022/05/01 00:21:27;;;;;;;;;;;;;;;7.45;100.00;96250.19;1023413;28;19926;-72
2022/05/01 00:21:58;;;;;;;;;;;;;;;7.46;100.00;96257.00;1022526;29;19918;-71
2022/05/01 00:22:29;;;;;;;;;;;;;;;7.42;100.00;96255.88;1022978;28;19923;-73
2022/05/01 00:22:59;;;;;;;;;;;;;;;7.42;100.00;96254.06;1030059;28;20395;-71
2022/05/01 00:23:29;;;;;;;;;;;;;;;7.41;100.00;96251.66;1026405;28;19922;-71
2022/05/01 00:24:00;;;;;;;;;;;;;;;7.41;100.00;96256.88;1022384;29;19922;-72
2022/05/01 00:24:31;;;;;;;;;;;;;;;7.44;100.00;96259.03;1018376;29;19922;-72
2022/05/01 00:25:01;;;;;;;;;;;;;;;7.44;100.00;96253.81;1022218;28;19918;-72
2022/05/01 00:25:31;;;;;;;;;;;;;;;7.42;100.00;96255.88;1022568;29;20113;-71
2022/05/01 00:26:02;;;;;;;;;;;;;;;7.43;100.00;96250.41;1022602;28;19916;-72
2022/05/01 00:26:33;;;;;;;;;;;;;;;7.41;100.00;96249.03;1025799;28;20811;-72
2022/05/01 00:27:06;;;;;;;;;;;;;;;7.42;100.00;96255.88;1026433;28;19916;-72
2022/05/01 00:27:36;;;;;;;;;;;;;;;7.40;100.00;96253.47;1022412;29;19919;-72
2022/05/01 00:28:09;;;;;;;;;;;;;;;7.39;100.00;96257.13;1023270;28;19922;-71
2022/05/01 00:28:40;;;;;;;;;;;;;;;7.40;100.00;96257.91;1025855;28;19917;-72
2022/05/01 00:29:10;;;;;;;;;;;;;;;7.40;100.00;96258.69;1022814;29;19915;-72
2022/05/01 00:29:40;;;;;;;;;;;;;;;7.40;100.00;96244.84;1022981;28;19919;-72
2022/05/01 00:30:11;;;;;;;;;;;;;;;7.40;100.00;96257.91;1026426;28;20480;-71
2022/05/01 00:30:41;;;;;;;;;;;;;;;7.40;100.00;96255.28;1028670;28;19928;-71
2022/05/01 00:31:16;;;;;;;;;;;;;;;7.40;100.00;96247.47;1026741;28;19914;-73
2022/05/01 00:31:46;;;;;;;;;;;;;;;7.39;100.00;96256.31;1023047;28;19992;-72
2022/05/01 00:32:16;;;;;;;;;;;;;;;7.39;100.00;96253.72;1018394;29;19982;-71
2022/05/01 00:36:27;;;;;;;;;;;;;;;7.37;100.00;96248.72;1028825;28;19924;-71
2022/05/01 00:36:57;;;;;;;;;;;;;;;7.38;100.00;96239.06;1030153;28;20068;-72
2022/05/01 00:37:27;;;;;;;;;;;;;;;7.38;100.00;96244.28;1031153;28;20000;-71
2022/05/01 00:37:58;;;;;;;;;;;;;;;7.39;100.00;96240.66;1030777;28;19918;-72
2022/05/01 00:38:29;;;;;;;;;;;;;;;7.37;100.00;96246.09;1030596;28;19924;-72
2022/05/01 00:39:06;;;;;;;;;;;;;;;7.37;100.00;96245.31;1026734;28;19914;-72
2022/05/01 00:39:37;;;;;;;;;;;;;;;7.38;100.00;96246.88;1024542;28;19975;-71
2022/05/01 00:40:07;;;;;;;;;;;;;;;7.36;100.00;96252.34;1026722;28;19914;-71
2022/05/01 00:40:37;;;;;;;;;;;;;;;7.35;100.00;96247.38;1027254;28;20013;-71
2022/05/01 00:41:08;;;;;;;;;;;;;;;7.32;100.00;96246.78;1030304;28;20739;-72
2022/05/01 00:41:39;;;;;;;;;;;;;;;7.33;100.00;96248.38;1026830;28;19945;-72
2022/05/01 00:42:09;;;;;;;;;;;;;;;7.33;100.00;96243.16;1026786;28;20388;-72
2022/05/01 00:42:43;;;;;;;;;;;;;;;7.35;100.00;96253.38;1026237;28;19918;-71
2022/05/01 00:43:13;;;;;;;;;;;;;;;7.33;100.00;96237.94;1023203;28;19938;-72
2022/05/01 00:44:06;;;;;;;;;;;;;;;7.31;100.00;96247.03;1026495;28;20360;-72
2022/05/01 00:44:37;;;;;;;;;;;;;;;7.30;100.00;96243.59;1027941;28;19910;-72
2022/05/01 00:45:07;;;;;;;;;;;;;;;7.31;100.00;96241.81;1033507;28;19914;-71
2022/05/01 00:45:37;;;;;;;;;;;;;;;7.31;100.00;96244.44;1030671;28;20791;-71
2022/05/01 00:46:08;;;;;;;;;;;;;;;7.30;100.00;96243.59;1026582;28;20351;-72
2022/05/01 00:46:42;;;;;;;;;;;;;;;7.29;100.00;96241.25;1021804;28;19919;-72
2022/05/01 00:47:12;;;;;;;;;;;;;;;7.29;100.00;96236.03;1023193;28;19918;-72
2022/05/01 00:47:43;;;;;;;;;;;;;;;7.29;100.00;96243.84;1023132;28;19911;-73
2022/05/01 00:48:13;;;;;;;;;;;;;;;7.29;100.00;96241.25;1024342;28;19926;-71
2022/05/01 00:48:43;;;;;;;;;;;;;;;7.26;100.00;96236.47;1028478;28;19921;-71
2022/05/01 00:49:15;;;;;;;;;;;;;;;7.24;100.00;96244.53;1018431;29;19922;-71
2022/05/01 00:49:45;;;;;;;;;;;;;;;7.24;100.00;96239.31;1018733;29;19914;-72
2022/05/01 00:50:16;;;;;;;;;;;;;;;7.24;100.00;96244.53;1014623;29;19926;-70
2022/05/01 00:50:47;;;;;;;;;;;;;;;7.22;100.00;96246.56;1019085;28;19919;-72
2022/05/01 00:51:17;;;;;;;;;;;;;;;7.21;100.00;96250.22;1026538;28;19918;-71
2022/05/01 00:51:48;;;;;;;;;;;;;;;7.21;100.00;96239.78;1018792;29;19916;-71
2022/05/01 00:52:19;;;;;;;;;;;;;;;7.19;100.00;96241.81;1025393;28;19995;-71
2022/05/01 00:52:50;;;;;;;;;;;;;;;7.19;100.00;96246.25;1022909;29;19983;-72
2022/05/01 00:53:20;;;;;;;;;;;;;;;7.16;100.00;96242.25;1016001;29;19927;-71
2022/05/01 00:53:50;;;;;;;;;;;;;;;7.16;100.00;96244.09;1020611;28;19915;-71
2022/05/01 00:54:22;;;;;;;;;;;;;;;7.14;100.00;96239.09;1018891;29;19966;-72
2022/05/01 00:54:53;;;;;;;;;;;;;;;7.14;100.00;96249.53;1022811;28;20964;-71
2022/05/01 00:55:23;;;;;;;;;;;;;;;7.12;100.00;96248.97;1022635;28;19918;-71
2022/05/01 00:55:53;;;;;;;;;;;;;;;7.15;100.00;96248.53;1022726;28;19914;-72
2022/05/01 00:56:24;;;;;;;;;;;;;;;7.11;100.00;96239.56;1022173;28;20062;-71
2022/05/01 00:56:55;;;;;;;;;;;;;;;7.12;100.00;96235.94;1026458;28;20376;-71
2022/05/01 00:57:25;;;;;;;;;;;;;;;7.10;100.00;96248.38;1022551;28;19925;-71
2022/05/01 00:57:55;;;;;;;;;;;;;;;7.07;100.00;96246.22;1022561;28;20416;-71
2022/05/01 00:58:26;;;;;;;;;;;;;;;7.07;100.00;96244.41;1022635;28;20013;-72
2022/05/01 00:58:56;;;;;;;;;;;;;;;7.07;100.00;96251.44;1022415;28;19925;-71
2022/05/01 00:59:26;;;;;;;;;;;;;;;7.06;100.00;96242.03;1022656;28;19930;-72
2022/05/01 00:59:57;;;;;;;;;;;;;;;7.06;100.00;96247.25;1025121;28;20481;-71
2022/05/01 01:00:27;;;;;;;;;;;;;;;7.04;100.00;96241.47;1026940;28;19918;-71
2022/05/01 01:00:57;;;;;;;;;;;;;;;7.04;100.00;96241.47;1018862;29;19919;-72
2022/05/01 01:01:27;;;;;;;;;;;;;;;7.05;100.00;96243.06;1022577;29;19923;-72
2022/05/01 01:01:58;;;;;;;;;;;;;;;7.03;100.00;96238.06;1018595;29;19918;-71
2022/05/01 01:02:28;;;;;;;;;;;;;;;7.03;100.00;96242.50;1021606;29;20490;-72
2022/05/01 01:02:58;;;;;;;;;;;;;;;7.02;100.00;96240.91;1018604;29;19919;-71
2022/05/01 01:03:29;;;;;;;;;;;;;;;7.01;100.00;96245.34;1018741;29;19946;-72
2022/05/01 01:03:59;;;;;;;;;;;;;;;7.00;100.00;96237.72;1014581;29;19955;-72
2022/05/01 01:04:29;;;;;;;;;;;;;;;7.00;100.00;96242.94;1018653;28;19951;-72
2022/05/01 01:05:00;;;;;;;;;;;;;;;7.00;100.00;96233.31;1026694;28;19922;-73
2022/05/01 01:05:30;;;;;;;;;;;;;;;6.99;100.00;96241.38;1026439;28;19945;-72
2022/05/01 01:06:00;;;;;;;;;;;;;;;6.97;100.00;96243.41;1022543;29;19922;-72
2022/05/01 01:06:30;;;;;;;;;;;;;;;6.97;100.00;96240.78;1022179;29;19977;-72
2022/05/01 01:07:02;;;;;;;;;;;;;;;6.96;100.00;96239.22;1025884;28;20315;-71
2022/05/01 01:07:34;;;;;;;;;;;;;;;6.97;100.00;96232.97;1026485;28;19926;-72
2022/05/01 01:08:05;;;;;;;;;;;;;;;6.98;100.00;96234.56;1018986;29;19958;-72
2022/05/01 01:08:35;;;;;;;;;;;;;;;6.98;100.00;96234.56;1021921;28;19922;-72
2022/05/01 01:09:06;;;;;;;;;;;;;;;6.99;100.00;96233.53;1019829;29;19923;-72
2022/05/01 01:09:36;;;;;;;;;;;;;;;6.98;100.00;96237.19;1015722;29;19962;-72
2022/05/01 01:10:07;;;;;;;;;;;;;;;6.96;100.00;96232.19;1023320;28;19922;-73
2022/05/01 01:10:37;;;;;;;;;;;;;;;6.95;100.00;96235.81;1023559;28;19942;-72
2022/05/01 01:11:07;;;;;;;;;;;;;;;6.95;100.00;96235.81;1019567;29;19919;-71
2022/05/01 01:11:38;;;;;;;;;;;;;;;6.99;100.00;96233.53;1026183;28;19918;-72
2022/05/01 01:13:10;;;;;;;;;;;;;;;6.98;100.00;96234.56;1023740;28;19928;-72
2022/05/01 01:13:40;;;;;;;;;;;;;;;7.00;100.00;96237.72;1031263;28;19954;-72
2022/05/01 01:14:10;;;;;;;;;;;;;;;7.00;100.00;96230.69;1031191;28;20371;-72
2022/05/01 01:14:42;;;;;;;;;;;;;;;7.00;100.00;96233.31;1030071;28;19918;-72
2022/05/01 01:15:13;;;;;;;;;;;;;;;7.01;100.00;96229.69;1027321;28;19918;-72
2022/05/01 01:15:45;;;;;;;;;;;;;;;6.98;100.00;96235.38;1027139;28;19922;-72
2022/05/01 01:16:15;;;;;;;;;;;;;;;7.01;100.00;96234.13;1027595;28;19976;-71
2022/05/01 01:16:46;;;;;;;;;;;;;;;7.01;100.00;96234.13;1027126;28;20152;-71
2022/05/01 01:17:16;;;;;;;;;;;;;;;7.00;100.00;96230.69;1027403;28;20238;-72
2022/05/01 01:17:47;;;;;;;;;;;;;;;6.99;100.00;96236.94;1023224;28;19922;-72
2022/05/01 01:18:17;;;;;;;;;;;;;;;7.00;100.00;96233.31;1023195;29;19918;-71
2022/05/01 01:18:47;;;;;;;;;;;;;;;7.00;100.00;96229.91;1026032;28;19918;-71
2022/05/01 01:19:17;;;;;;;;;;;;;;;6.99;100.00;96231.72;1025558;28;19956;-71
2022/05/01 01:19:48;;;;;;;;;;;;;;;6.99;100.00;96230.94;1023494;29;19922;-71
2022/05/01 01:20:18;;;;;;;;;;;;;;;7.00;100.00;96237.72;1023083;28;19926;-71
2022/05/01 01:20:48;;;;;;;;;;;;;;;7.00;100.00;96229.91;1023358;28;19918;-72
2022/05/01 01:21:19;;;;;;;;;;;;;;;6.99;100.00;96233.53;1019494;29;20527;-72
2022/05/01 01:21:52;;;;;;;;;;;;;;;6.97;100.00;96232.97;1015441;29;19925;-72
2022/05/01 01:22:22;;;;;;;;;;;;;;;6.96;100.00;96226.97;1022961;28;20029;-72
2022/05/01 01:22:53;;;;;;;;;;;;;;;6.95;100.00;96227.19;1019670;29;19914;-72
2022/05/01 01:23:23;;;;;;;;;;;;;;;6.95;100.00;96224.59;1027368;28;19910;-72
2022/05/01 01:23:54;;;;;;;;;;;;;;;6.95;100.00;96229.81;1023543;28;19945;-71
2022/05/01 01:24:24;;;;;;;;;;;;;;;6.94;100.00;96236.03;1023117;28;19949;-72
2022/05/01 01:24:54;;;;;;;;;;;;;;;6.94;100.00;96228.19;1019243;29;20456;-71
2022/05/01 01:25:29;;;;;;;;;;;;;;;6.94;100.00;96233.41;1019580;29;20592;-71
2022/05/01 01:25:59;;;;;;;;;;;;;;;6.94;100.00;96231.63;1023252;29;19922;-72
2022/05/01 01:26:31;;;;;;;;;;;;;;;6.94;100.00;96233.41;1022426;28;19914;-72
2022/05/01 01:27:01;;;;;;;;;;;;;;;6.92;100.00;96236.25;1024185;28;19926;-71
2022/05/01 01:27:31;;;;;;;;;;;;;;;6.91;100.00;96226.03;1027356;28;19933;-72
2022/05/01 01:28:03;;;;;;;;;;;;;;;6.92;100.00;96236.25;1025555;28;20419;-72
2022/05/01 01:28:35;;;;;;;;;;;;;;;6.91;100.00;96229.47;1026792;28;19929;-72
2022/05/01 01:31:42;;;;;;;;;;;;;;;6.84;100.00;96229.56;1026431;28;20025;-73
2022/05/01 01:32:12;;;;;;;;;;;;;;;6.83;100.00;96227.97;1021572;29;19922;-72
2022/05/01 01:32:42;;;;;;;;;;;;;;;6.81;100.00;96224.81;1023099;29;19915;-72
2022/05/01 01:33:13;;;;;;;;;;;;;;;6.81;100.00;96230.03;1023343;28;19957;-73
2022/05/01 01:33:43;;;;;;;;;;;;;;;6.81;100.00;96224.81;1024882;28;19925;-72
2022/05/01 01:34:14;;;;;;;;;;;;;;;6.81;100.00;96230.03;1031267;28;20012;-72
2022/05/01 01:34:45;;;;;;;;;;;;;;;6.79;100.00;96232.06;1027543;28;20316;-72
2022/05/01 01:35:18;;;;;;;;;;;;;;;6.78;100.00;96229.69;1023247;28;19911;-72
2022/05/01 01:35:49;;;;;;;;;;;;;;;6.74;100.00;96224.13;1026867;28;19925;-72
2022/05/01 01:36:23;;;;;;;;;;;;;;;6.75;100.00;96224.91;1026795;28;20356;-72
2022/05/01 01:36:53;;;;;;;;;;;;;;;6.77;100.00;96230.69;1030980;28;19914;-71
2022/05/01 01:37:24;;;;;;;;;;;;;;;6.77;100.00;96223.69;1031262;28;19925;-72
2022/05/01 01:37:55;;;;;;;;;;;;;;;6.73;100.00;96232.94;1031217;28;19920;-72
2022/05/01 01:38:25;;;;;;;;;;;;;;;6.72;100.00;96223.56;1026186;28;19917;-71
2022/05/01 01:38:55;;;;;;;;;;;;;;;6.71;100.00;96224.56;1023308;28;19915;-71
2022/05/01 01:39:25;;;;;;;;;;;;;;;6.72;100.00;96220.94;1019391;28;19926;-72
2022/05/01 01:39:56;;;;;;;;;;;;;;;6.72;100.00;96223.56;1019420;29;19911;-71
2022/05/01 01:40:45;;;;;;;;;;;;;;;6.73;100.00;96221.72;1016088;29;20237;-72
2022/05/01 01:41:18;;;;;;;;;;;;;;;6.72;100.00;96220.16;1017578;29;19927;-71
2022/05/01 01:41:48;;;;;;;;;;;;;;;6.73;100.00;96217.31;1022505;29;20001;-71
2022/05/01 01:42:19;;;;;;;;;;;;;;;6.72;100.00;96220.94;1025876;28;19949;-71
2022/05/01 01:42:49;;;;;;;;;;;;;;;6.72;100.00;96220.94;1023729;28;19957;-71
2022/05/01 01:43:27;;;;;;;;;;;;;;;6.72;100.00;96220.94;1023177;29;20280;-72
2022/05/01 01:43:57;;;;;;;;;;;;;;;6.72;100.00;96220.94;1023109;29;19977;-71
2022/05/01 01:44:29;;;;;;;;;;;;;;;6.73;100.00;96225.13;1016495;29;20675;-71
2022/05/01 01:44:59;;;;;;;;;;;;;;;6.73;100.00;96219.13;1019301;29;19922;-72
2022/05/01 01:45:30;;;;;;;;;;;;;;;6.73;100.00;96221.72;1022441;28;19960;-71
2022/05/01 01:46:00;;;;;;;;;;;;;;;6.72;100.00;96220.94;1019673;29;20013;-72
2022/05/01 01:46:31;;;;;;;;;;;;;;;6.73;100.00;96222.53;1022678;29;19919;-71
2022/05/01 01:47:01;;;;;;;;;;;;;;;6.72;100.00;96220.94;1023100;28;19962;-71
2022/05/01 01:47:33;;;;;;;;;;;;;;;6.73;100.00;96219.13;1023232;28;20017;-71
2022/05/01 01:48:13;;;;;;;;;;;;;;;6.73;100.00;96222.53;1031005;28;19921;-71
2022/05/01 01:48:45;;;;;;;;;;;;;;;6.75;100.00;96219.69;1029267;28;19906;-71
2022/05/01 01:49:16;;;;;;;;;;;;;;;6.74;100.00;96216.31;1031089;28;19929;-71
2022/05/01 01:49:46;;;;;;;;;;;;;;;6.74;100.00;96218.91;1027176;28;20427;-73
2022/05/01 01:50:19;;;;;;;;;;;;;;;6.74;100.00;96223.31;1027198;28;19922;-71
2022/05/01 01:50:56;;;;;;;;;;;;;;;6.76;100.00;96226.50;1027281;28;19918;-71
2022/05/01 01:51:26;;;;;;;;;;;;;;;6.74;100.00;96218.09;1031353;28;19918;-72
2022/05/01 01:51:56;;;;;;;;;;;;;;;6.74;100.00;96221.53;1031100;28;19922;-71
2022/05/01 01:52:27;;;;;;;;;;;;;;;6.74;100.00;96223.31;1028107;28;20435;-71
2022/05/01 01:52:57;;;;;;;;;;;;;;;6.76;100.00;96219.47;1027403;28;20601;-71
2022/05/01 01:53:28;;;;;;;;;;;;;;;6.73;100.00;96217.31;1023106;29;19981;-71
2022/05/01 01:53:59;;;;;;;;;;;;;;;6.76;100.00;96221.28;1023497;28;20820;-72
2022/05/01 01:54:29;;;;;;;;;;;;;;;6.72;100.00;96218.34;1027997;28;19965;-71
2022/05/01 01:55:00;;;;;;;;;;;;;;;6.74;100.00;96223.31;1027827;28;19914;-72
2022/05/01 01:55:31;;;;;;;;;;;;;;;6.74;100.00;96218.09;1021459;28;19918;-72
2022/05/01 01:56:02;;;;;;;;;;;;;;;6.73;100.00;96214.69;1015098;29;19915;-72
2022/05/01 01:56:32;;;;;;;;;;;;;;;6.72;100.00;96220.94;1011854;29;20465;-69
2022/05/01 01:57:03;;;;;;;;;;;;;;;6.71;100.00;96213.34;1016502;29;19954;-72
2022/05/01 01:57:33;;;;;;;;;;;;;;;6.70;100.00;96220.38;1019665;28;19973;-70
2022/05/01 01:58:03;;;;;;;;;;;;;;;6.69;100.00;96221.41;1023811;28;19919;-71
2022/05/01 01:58:34;;;;;;;;;;;;;;;6.70;100.00;96215.16;1023646;29;19907;-71
2022/05/01 01:59:04;;;;;;;;;;;;;;;6.68;100.00;96216.41;1026777;28;20349;-71
2022/05/01 01:59:34;;;;;;;;;;;;;;;6.71;100.00;96221.97;1028310;28;20000;-71
2022/05/01 02:00:09;;;;;;;;;;;;;;;6.68;100.00;96225.03;1024506;28;19918;-72
2022/05/01 02:00:39;;;;;;;;;;;;;;;6.67;100.00;96215.59;1027890;28;19919;-71
2022/05/01 02:01:13;;;;;;;;;;;;;;;6.67;100.00;96218.19;1028285;28;20303;-72
2022/05/01 02:01:43;;;;;;;;;;;;;;;6.69;100.00;96218.78;1024035;29;19962;-72
2022/05/01 02:02:14;;;;;;;;;;;;;;;6.67;100.00;96217.41;1023888;28;19925;-72
2022/05/01 02:02:44;;;;;;;;;;;;;;;6.68;100.00;96219.03;1024631;28;20381;-72
2022/05/01 02:03:15;;;;;;;;;;;;;;;6.66;100.00;96221.06;1019936;28;19977;-71
2022/05/01 02:03:46;;;;;;;;;;;;;;;6.67;100.00;96217.41;1016199;28;19915;-72
2022/05/01 02:04:17;;;;;;;;;;;;;;;6.64;100.00;96221.28;1015824;29;19919;-71
2022/05/01 02:04:47;;;;;;;;;;;;;;;6.64;100.00;96218.69;1013077;29;19990;-72
2022/05/01 02:05:20;;;;;;;;;;;;;;;6.67;100.00;96223.41;1020450;28;19921;-73
2022/05/01 02:05:51;;;;;;;;;;;;;;;6.67;100.00;96215.59;1030593;28;19922;-71
2022/05/01 02:06:21;;;;;;;;;;;;;;;6.68;100.00;96217.22;1027955;28;20404;-69
2022/05/01 02:06:52;;;;;;;;;;;;;;;6.69;100.00;96216.19;1027787;28;19949;-72
2022/05/01 02:07:22;;;;;;;;;;;;;;;6.69;100.00;96216.19;1028681;28;19914;-72
2022/05/01 02:07:53;;;;;;;;;;;;;;;6.69;100.00;96216.19;1028999;28;19918;-72
2022/05/01 02:08:23;;;;;;;;;;;;;;;6.69;100.00;96215.38;1029108;28;19981;-71
2022/05/01 02:08:54;;;;;;;;;;;;;;;6.70;100.00;96215.16;1024979;28;19957;-72
2022/05/01 02:09:25;;;;;;;;;;;;;;;6.68;100.00;96214.59;1020834;28;19911;-71
2022/05/01 02:09:55;;;;;;;;;;;;;;;6.66;100.00;96211.41;1021172;29;19984;-72
2022/05/01 02:10:26;;;;;;;;;;;;;;;6.67;100.00;96215.59;1024632;28;19922;-71
2022/05/01 02:10:56;;;;;;;;;;;;;;;6.68;100.00;96213.81;1023865;28;19922;-71
2022/05/01 02:11:27;;;;;;;;;;;;;;;6.68;100.00;96225.03;1027934;28;20025;-71
2022/05/01 02:11:57;;;;;;;;;;;;;;;6.70;100.00;96215.16;1028204;28;20515;-71
2022/05/01 02:12:28;;;;;;;;;;;;;;;6.69;100.00;96215.38;1028128;28;19918;-71
2022/05/01 02:13:01;;;;;;;;;;;;;;;6.69;100.00;96220.59;1036038;28;19909;-71
2022/05/01 02:13:31;;;;;;;;;;;;;;;6.69;100.00;96216.19;1028149;28;19914;-71
2022/05/01 02:14:03;;;;;;;;;;;;;;;6.70;100.00;96216.97;1027709;28;19914;-71
2022/05/01 02:14:34;;;;;;;;;;;;;;;6.67;100.00;96218.19;1020055;28;19910;-71
2022/05/01 02:15:04;;;;;;;;;;;;;;;6.69;100.00;96220.59;1020103;29;20408;-71
2022/05/01 02:15:35;;;;;;;;;;;;;;;6.66;100.00;96227.06;1020150;29;19923;-71
2022/05/01 02:16:06;;;;;;;;;;;;;;;6.68;100.00;96219.81;1020559;28;20371;-72
2022/05/01 02:16:36;;;;;;;;;;;;;;;6.68;100.00;96214.59;1027103;28;19918;-71
2022/05/01 02:17:09;;;;;;;;;;;;;;;6.66;100.00;96216.63;1028198;28;20374;-72
2022/05/01 02:17:39;;;;;;;;;;;;;;;6.64;100.00;96218.69;1028068;28;19910;-71
2022/05/01 02:18:09;;;;;;;;;;;;;;;6.64;100.00;96221.28;1031963;28;19933;-72
2022/05/01 02:18:40;;;;;;;;;;;;;;;6.62;100.00;96218.09;1027549;28;19926;-71
2022/05/01 02:19:10;;;;;;;;;;;;;;;6.61;100.00;96219.13;1023774;28;19965;-72
2022/05/01 02:19:40;;;;;;;;;;;;;;;6.60;100.00;96218.31;1027930;28;19918;-71
2022/05/01 02:20:11;;;;;;;;;;;;;;;6.60;100.00;96222.75;1020351;29;19919;-72
2022/05/01 02:21:36;;;;;;;;;;;;;;;6.62;100.00;96220.72;1023692;29;20404;-71
2022/05/01 02:22:06;;;;;;;;;;;;;;;6.62;100.00;96220.72;1026421;28;19922;-72
2022/05/01 02:22:39;;;;;;;;;;;;;;;6.64;100.00;96223.91;1023455;28;20355;-72
2022/05/01 02:23:10;;;;;;;;;;;;;;;6.64;100.00;96225.69;1020013;29;20082;-71
2022/05/01 02:23:40;;;;;;;;;;;;;;;6.63;100.00;96222.28;1013246;29;20371;-72
2022/05/01 02:24:12;;;;;;;;;;;;;;;6.60;100.00;96223.53;1016518;29;19930;-72
2022/05/01 02:24:42;;;;;;;;;;;;;;;6.58;100.00;96227.41;1023788;28;19919;-72
2022/05/01 02:25:13;;;;;;;;;;;;;;;6.60;100.00;96227.94;1024204;28;20399;-72
2022/05/01 02:25:43;;;;;;;;;;;;;;;6.57;100.00;96229.22;1027812;28;19918;-71
2022/05/01 02:26:14;;;;;;;;;;;;;;;6.59;100.00;96228.97;1023742;28;20396;-72
2022/05/01 02:26:44;;;;;;;;;;;;;;;6.57;100.00;96221.41;1027226;28;19933;-71
2022/05/01 02:27:14;;;;;;;;;;;;;;;6.57;100.00;96228.41;1024621;28;19918;-72
2022/05/01 02:27:47;;;;;;;;;;;;;;;6.52;100.00;96226.47;1024412;28;19914;-72
2022/05/01 02:28:17;;;;;;;;;;;;;;;6.51;100.00;96229.31;1027891;28;19922;-72
2022/05/01 02:28:48;;;;;;;;;;;;;;;6.52;100.00;96220.47;1020072;29;19961;-71
2022/05/01 02:29:18;;;;;;;;;;;;;;;6.53;100.00;96227.25;1020132;29;20404;-72
2022/05/01 02:29:48;;;;;;;;;;;;;;;6.53;100.00;96229.88;1020071;29;20475;-72
2022/05/01 02:30:21;;;;;;;;;;;;;;;6.53;100.00;96227.25;1019963;28;20376;-72
2022/05/01 02:30:51;;;;;;;;;;;;;;;6.54;100.00;96221.84;1024118;29;19922;-72
2022/05/01 02:31:22;;;;;;;;;;;;;;;6.54;100.00;96228.88;1024194;28;19921;-72
2022/05/01 02:31:55;;;;;;;;;;;;;;;6.51;100.00;96226.72;1023189;28;20021;-71
2022/05/01 02:32:26;;;;;;;;;;;;;;;6.53;100.00;96222.06;1024019;29;19922;-71
2022/05/01 02:32:56;;;;;;;;;;;;;;;6.51;100.00;96229.31;1019364;29;20348;-71
2022/05/01 02:33:26;;;;;;;;;;;;;;;6.51;100.00;96218.88;1018209;29;20337;-72
2022/05/01 02:33:57;;;;;;;;;;;;;;;6.50;100.00;96219.88;1023982;28;19923;-71
2022/05/01 02:34:27;;;;;;;;;;;;;;;6.48;100.00;96214.91;1020169;29;19930;-72
2022/05/01 02:34:57;;;;;;;;;;;;;;;6.48;100.00;96224.56;1023893;28;20343;-71
2022/05/01 02:35:27;;;;;;;;;;;;;;;6.46;100.00;96222.16;1023962;29;20403;-72
2022/05/01 02:35:58;;;;;;;;;;;;;;;6.30;100.00;96194.13;1019974;29;19974;-71
2022/05/01 02:36:28;;;;;;;;;;;;;;;6.44;100.00;96223.38;1019772;29;19973;-72
2022/05/01 02:36:59;;;;;;;;;;;;;;;6.42;100.00;96217.63;1019735;28;19919;-72
2022/05/01 02:37:29;;;;;;;;;;;;;;;6.42;100.00;96215.00;1024004;28;20474;-72
2022/05/01 02:38:00;;;;;;;;;;;;;;;6.42;100.00;96215.00;1028321;28;19918;-71
2022/05/01 02:38:30;;;;;;;;;;;;;;;6.38;100.00;96214.66;1028138;28;20439;-72
2022/05/01 02:39:01;;;;;;;;;;;;;;;6.41;100.00;96218.66;1031934;28;19922;-72
2022/05/01 02:39:31;;;;;;;;;;;;;;;6.40;100.00;96217.03;1031833;28;19988;-71
2022/05/01 02:40:02;;;;;;;;;;;;;;;6.38;100.00;96223.28;1028004;28;20307;-72
2022/05/01 02:40:32;;;;;;;;;;;;;;;6.36;100.00;96214.88;1032123;28;19921;-72
2022/05/01 02:41:02;;;;;;;;;;;;;;;6.34;100.00;96218.75;1031960;28;19968;-72
2022/05/01 02:41:33;;;;;;;;;;;;;;;6.33;100.00;96212.72;1027755;28;19922;-72
2022/05/01 02:42:03;;;;;;;;;;;;;;;6.33;100.00;96220.53;1028013;28;19910;-72
2022/05/01 02:42:34;;;;;;;;;;;;;;;6.33;100.00;96212.72;1019894;29;20009;-72
2022/05/01 02:43:05;;;;;;;;;;;;;;;6.32;100.00;96221.56;1012365;29;19923;-72
2022/05/01 02:43:35;;;;;;;;;;;;;;;6.31;100.00;96216.59;1015596;29;19924;-71
2022/05/01 02:44:06;;;;;;;;;;;;;;;6.32;100.00;96215.56;1016242;29;19923;-72
2022/05/01 02:44:37;;;;;;;;;;;;;;;6.31;100.00;96219.19;1020287;29;20348;-72
2022/05/01 02:45:08;;;;;;;;;;;;;;;6.29;100.00;96216.78;1019925;28;19921;-72
2022/05/01 02:45:39;;;;;;;;;;;;;;;6.29;100.00;96224.59;1015845;29;20031;-72
2022/05/01 02:46:09;;;;;;;;;;;;;;;6.27;100.00;96220.63;1020370;29;19919;-72
2022/05/01 02:46:39;;;;;;;;;;;;;;;6.25;100.00;96217.47;1015293;29;19930;-72
2022/05/01 02:47:09;;;;;;;;;;;;;;;6.23;100.00;96222.88;1016581;29;19930;-72
2022/05/01 02:47:40;;;;;;;;;;;;;;;6.24;100.00;96216.69;1015820;29;20415;-72
2022/05/01 02:48:10;;;;;;;;;;;;;;;6.23;100.00;96217.69;1020005;29;19925;-72
2022/05/01 02:48:41;;;;;;;;;;;;;;;6.25;100.00;96218.25;1015992;29;19970;-72
2022/05/01 02:49:11;;;;;;;;;;;;;;;6.20;100.00;96217.34;1016021;29;19931;-72
2022/05/01 02:49:42;;;;;;;;;;;;;;;6.22;100.00;96221.31;1023804;29;19930;-72